sensor_id;sensor_type;location;lat;lon;timestamp;temperature;humidity
25871;DHT22;13689;48.590;7.752;2024-03-02T00:02:08;8.80;80.70
25871;DHT22;13689;48.590;7.752;2024-03-02T00:04:34;8.80;80.80
25871;DHT22;13689;48.590;7.752;2024-03-02T00:06:59;8.80;80.80
25871;DHT22;13689;48.590;7.752;2024-03-02T00:09:25;8.70;80.80
25871;DHT22;13689;48.590;7.752;2024-03-02T00:11:50;8.80;81.60
25871;DHT22;13689;48.590;7.752;2024-03-02T00:14:16;8.70;80.90
25871;DHT22;13689;48.590;7.752;2024-03-02T00:16:42;8.70;81.00
25871;DHT22;13689;48.590;7.752;2024-03-02T00:19:09;8.60;81.20
25871;DHT22;13689;48.590;7.752;2024-03-02T00:21:35;8.60;81.40
25871;DHT22;13689;48.590;7.752;2024-03-02T00:24:01;8.60;81.30
25871;DHT22;13689;48.590;7.752;2024-03-02T00:26:32;8.60;81.40
25871;DHT22;13689;48.590;7.752;2024-03-02T00:28:59;8.60;81.50
25871;DHT22;13689;48.590;7.752;2024-03-02T00:31:25;8.60;81.50
25871;DHT22;13689;48.590;7.752;2024-03-02T00:33:51;8.60;81.50
25871;DHT22;13689;48.590;7.752;2024-03-02T00:36:22;8.60;81.60
25871;DHT22;13689;48.590;7.752;2024-03-02T00:38:51;8.50;81.50
25871;DHT22;13689;48.590;7.752;2024-03-02T00:41:25;8.50;81.80
25871;DHT22;13689;48.590;7.752;2024-03-02T00:44:02;8.50;82.00
25871;DHT22;13689;48.590;7.752;2024-03-02T00:46:33;8.50;82.00
25871;DHT22;13689;48.590;7.752;2024-03-02T00:49:00;8.50;82.00
25871;DHT22;13689;48.590;7.752;2024-03-02T00:51:28;8.40;82.50
25871;DHT22;13689;48.590;7.752;2024-03-02T00:53:59;8.40;82.10
25871;DHT22;13689;48.590;7.752;2024-03-02T00:56:25;8.30;82.30
25871;DHT22;13689;48.590;7.752;2024-03-02T00:58:51;8.30;82.70
25871;DHT22;13689;48.590;7.752;2024-03-02T01:01:17;8.30;82.80
25871;DHT22;13689;48.590;7.752;2024-03-02T01:03:43;8.30;82.80
25871;DHT22;13689;48.590;7.752;2024-03-02T01:06:09;8.30;82.70
25871;DHT22;13689;48.590;7.752;2024-03-02T01:08:35;8.30;82.50
25871;DHT22;13689;48.590;7.752;2024-03-02T01:11:01;8.30;82.80
25871;DHT22;13689;48.590;7.752;2024-03-02T01:13:27;8.30;82.80
25871;DHT22;13689;48.590;7.752;2024-03-02T01:15:53;8.30;82.90
25871;DHT22;13689;48.590;7.752;2024-03-02T01:18:18;8.30;83.00
25871;DHT22;13689;48.590;7.752;2024-03-02T01:20:44;8.30;83.20
25871;DHT22;13689;48.590;7.752;2024-03-02T01:23:10;8.30;83.10
25871;DHT22;13689;48.590;7.752;2024-03-02T01:25:35;8.30;83.00
25871;DHT22;13689;48.590;7.752;2024-03-02T01:28:01;8.30;83.10
25871;DHT22;13689;48.590;7.752;2024-03-02T01:30:27;8.30;83.10
25871;DHT22;13689;48.590;7.752;2024-03-02T01:32:52;8.30;83.20
25871;DHT22;13689;48.590;7.752;2024-03-02T01:35:18;8.30;83.10
25871;DHT22;13689;48.590;7.752;2024-03-02T01:37:43;8.30;83.10
25871;DHT22;13689;48.590;7.752;2024-03-02T01:40:10;8.30;83.00
25871;DHT22;13689;48.590;7.752;2024-03-02T01:42:37;8.30;83.10
25871;DHT22;13689;48.590;7.752;2024-03-02T01:45:09;8.30;83.30
25871;DHT22;13689;48.590;7.752;2024-03-02T01:47:35;8.30;83.30
25871;DHT22;13689;48.590;7.752;2024-03-02T01:50:00;8.30;83.40
25871;DHT22;13689;48.590;7.752;2024-03-02T01:52:27;8.30;83.40
25871;DHT22;13689;48.590;7.752;2024-03-02T01:54:53;8.20;83.30
25871;DHT22;13689;48.590;7.752;2024-03-02T01:57:19;8.20;83.50
25871;DHT22;13689;48.590;7.752;2024-03-02T01:59:45;8.20;83.60
25871;DHT22;13689;48.590;7.752;2024-03-02T02:02:13;8.20;83.70
25871;DHT22;13689;48.590;7.752;2024-03-02T02:04:38;8.20;83.70
25871;DHT22;13689;48.590;7.752;2024-03-02T02:07:04;8.20;83.50
25871;DHT22;13689;48.590;7.752;2024-03-02T02:09:30;8.20;83.60
25871;DHT22;13689;48.590;7.752;2024-03-02T02:11:55;8.20;83.70
25871;DHT22;13689;48.590;7.752;2024-03-02T02:14:21;8.20;83.80
25871;DHT22;13689;48.590;7.752;2024-03-02T02:16:46;8.20;83.80
25871;DHT22;13689;48.590;7.752;2024-03-02T02:19:12;8.20;83.90
25871;DHT22;13689;48.590;7.752;2024-03-02T02:21:38;8.10;83.90
25871;DHT22;13689;48.590;7.752;2024-03-02T02:24:07;8.10;84.00
25871;DHT22;13689;48.590;7.752;2024-03-02T02:26:32;8.20;83.90
25871;DHT22;13689;48.590;7.752;2024-03-02T02:28:58;8.20;84.00
25871;DHT22;13689;48.590;7.752;2024-03-02T02:31:23;8.20;83.90
25871;DHT22;13689;48.590;7.752;2024-03-02T02:33:49;8.20;83.90
25871;DHT22;13689;48.590;7.752;2024-03-02T02:36:15;8.20;83.80
25871;DHT22;13689;48.590;7.752;2024-03-02T02:38:44;8.20;83.80
25871;DHT22;13689;48.590;7.752;2024-03-02T02:41:10;8.20;83.80
25871;DHT22;13689;48.590;7.752;2024-03-02T02:43:36;8.10;83.80
25871;DHT22;13689;48.590;7.752;2024-03-02T02:46:02;8.10;83.80
25871;DHT22;13689;48.590;7.752;2024-03-02T02:48:27;8.00;83.80
25871;DHT22;13689;48.590;7.752;2024-03-02T02:50:53;8.10;84.00
25871;DHT22;13689;48.590;7.752;2024-03-02T02:53:18;8.00;84.00
25871;DHT22;13689;48.590;7.752;2024-03-02T02:55:44;8.00;83.80
25871;DHT22;13689;48.590;7.752;2024-03-02T02:58:10;8.00;83.90
25871;DHT22;13689;48.590;7.752;2024-03-02T03:00:36;8.00;84.10
25871;DHT22;13689;48.590;7.752;2024-03-02T03:03:01;8.00;84.20
25871;DHT22;13689;48.590;7.752;2024-03-02T03:05:27;8.00;84.10
25871;DHT22;13689;48.590;7.752;2024-03-02T03:07:53;8.00;83.90
25871;DHT22;13689;48.590;7.752;2024-03-02T03:10:18;7.90;83.90
25871;DHT22;13689;48.590;7.752;2024-03-02T03:12:47;7.90;83.90
25871;DHT22;13689;48.590;7.752;2024-03-02T03:15:13;7.90;84.00
25871;DHT22;13689;48.590;7.752;2024-03-02T03:17:39;7.90;84.00
25871;DHT22;13689;48.590;7.752;2024-03-02T03:20:06;7.90;84.00
25871;DHT22;13689;48.590;7.752;2024-03-02T03:22:35;7.90;83.80
25871;DHT22;13689;48.590;7.752;2024-03-02T03:25:01;7.90;83.70
25871;DHT22;13689;48.590;7.752;2024-03-02T03:27:27;7.90;83.80
25871;DHT22;13689;48.590;7.752;2024-03-02T03:29:52;7.80;83.80
25871;DHT22;13689;48.590;7.752;2024-03-02T03:32:19;7.80;83.80
25871;DHT22;13689;48.590;7.752;2024-03-02T03:34:45;7.80;84.00
25871;DHT22;13689;48.590;7.752;2024-03-02T03:37:11;7.80;83.80
25871;DHT22;13689;48.590;7.752;2024-03-02T03:39:36;7.80;84.00
25871;DHT22;13689;48.590;7.752;2024-03-02T03:42:02;7.80;83.90
25871;DHT22;13689;48.590;7.752;2024-03-02T03:44:28;7.80;83.90
25871;DHT22;13689;48.590;7.752;2024-03-02T03:46:53;7.80;83.80
25871;DHT22;13689;48.590;7.752;2024-03-02T03:49:19;7.80;84.00
25871;DHT22;13689;48.590;7.752;2024-03-02T03:51:44;7.80;83.80
25871;DHT22;13689;48.590;7.752;2024-03-02T03:54:10;7.80;84.00
25871;DHT22;13689;48.590;7.752;2024-03-02T03:56:37;7.80;84.00
25871;DHT22;13689;48.590;7.752;2024-03-02T03:59:02;7.80;83.90
25871;DHT22;13689;48.590;7.752;2024-03-02T04:01:28;7.70;83.90
25871;DHT22;13689;48.590;7.752;2024-03-02T04:03:53;7.70;83.90
25871;DHT22;13689;48.590;7.752;2024-03-02T04:06:19;7.70;84.00
25871;DHT22;13689;48.590;7.752;2024-03-02T04:08:45;7.70;84.00
25871;DHT22;13689;48.590;7.752;2024-03-02T04:11:10;7.70;84.00
25871;DHT22;13689;48.590;7.752;2024-03-02T04:13:36;7.70;84.00
25871;DHT22;13689;48.590;7.752;2024-03-02T04:16:03;7.70;84.40
25871;DHT22;13689;48.590;7.752;2024-03-02T04:18:30;7.70;84.00
25871;DHT22;13689;48.590;7.752;2024-03-02T04:20:57;7.60;84.50
25871;DHT22;13689;48.590;7.752;2024-03-02T04:23:25;7.60;84.10
25871;DHT22;13689;48.590;7.752;2024-03-02T04:25:53;7.60;84.10
25871;DHT22;13689;48.590;7.752;2024-03-02T04:28:19;7.60;84.30
25871;DHT22;13689;48.590;7.752;2024-03-02T04:30:44;7.60;84.30
25871;DHT22;13689;48.590;7.752;2024-03-02T04:33:10;7.60;84.30
25871;DHT22;13689;48.590;7.752;2024-03-02T04:35:36;7.60;84.10
25871;DHT22;13689;48.590;7.752;2024-03-02T04:38:02;7.50;84.20
25871;DHT22;13689;48.590;7.752;2024-03-02T04:40:28;7.50;84.30
25871;DHT22;13689;48.590;7.752;2024-03-02T04:42:53;7.50;84.40
25871;DHT22;13689;48.590;7.752;2024-03-02T04:45:19;7.50;84.60
25871;DHT22;13689;48.590;7.752;2024-03-02T04:47:45;7.50;84.70
25871;DHT22;13689;48.590;7.752;2024-03-02T04:50:10;7.50;84.80
25871;DHT22;13689;48.590;7.752;2024-03-02T04:52:37;7.50;84.70
25871;DHT22;13689;48.590;7.752;2024-03-02T04:55:03;7.40;84.70
25871;DHT22;13689;48.590;7.752;2024-03-02T04:57:35;7.40;84.90
25871;DHT22;13689;48.590;7.752;2024-03-02T05:00:01;7.40;85.00
25871;DHT22;13689;48.590;7.752;2024-03-02T05:02:26;7.50;85.00
25871;DHT22;13689;48.590;7.752;2024-03-02T05:04:52;7.50;84.90
25871;DHT22;13689;48.590;7.752;2024-03-02T05:07:18;7.50;84.90
25871;DHT22;13689;48.590;7.752;2024-03-02T05:09:43;7.50;85.00
25871;DHT22;13689;48.590;7.752;2024-03-02T05:12:10;7.50;85.00
25871;DHT22;13689;48.590;7.752;2024-03-02T05:14:54;7.40;85.00
25871;DHT22;13689;48.590;7.752;2024-03-02T05:17:19;7.50;84.90
25871;DHT22;13689;48.590;7.752;2024-03-02T05:19:45;7.40;85.00
25871;DHT22;13689;48.590;7.752;2024-03-02T05:22:10;7.40;85.00
25871;DHT22;13689;48.590;7.752;2024-03-02T05:24:36;7.40;85.10
25871;DHT22;13689;48.590;7.752;2024-03-02T05:27:02;7.40;85.10
25871;DHT22;13689;48.590;7.752;2024-03-02T05:29:28;7.40;85.20
25871;DHT22;13689;48.590;7.752;2024-03-02T05:31:53;7.40;85.30
25871;DHT22;13689;48.590;7.752;2024-03-02T05:34:19;7.40;85.20
25871;DHT22;13689;48.590;7.752;2024-03-02T05:36:44;7.30;85.20
25871;DHT22;13689;48.590;7.752;2024-03-02T05:39:10;7.30;85.30
25871;DHT22;13689;48.590;7.752;2024-03-02T05:41:36;7.30;85.50
25871;DHT22;13689;48.590;7.752;2024-03-02T05:44:01;7.30;85.40
25871;DHT22;13689;48.590;7.752;2024-03-02T05:46:27;7.30;85.30
25871;DHT22;13689;48.590;7.752;2024-03-02T05:48:53;7.20;85.10
25871;DHT22;13689;48.590;7.752;2024-03-02T05:51:18;7.20;86.20
25871;DHT22;13689;48.590;7.752;2024-03-02T05:53:44;7.20;85.90
25871;DHT22;13689;48.590;7.752;2024-03-02T05:56:10;7.20;85.90
25871;DHT22;13689;48.590;7.752;2024-03-02T05:58:35;7.30;86.00
25871;DHT22;13689;48.590;7.752;2024-03-02T06:01:19;7.30;86.00
25871;DHT22;13689;48.590;7.752;2024-03-02T06:03:45;7.30;86.10
25871;DHT22;13689;48.590;7.752;2024-03-02T06:06:11;7.40;86.20
25871;DHT22;13689;48.590;7.752;2024-03-02T06:08:38;7.50;86.20
25871;DHT22;13689;48.590;7.752;2024-03-02T06:11:03;7.60;86.20
25871;DHT22;13689;48.590;7.752;2024-03-02T06:13:29;7.60;86.00
25871;DHT22;13689;48.590;7.752;2024-03-02T06:15:55;7.60;85.90
25871;DHT22;13689;48.590;7.752;2024-03-02T06:18:20;7.70;85.90
25871;DHT22;13689;48.590;7.752;2024-03-02T06:20:46;7.70;85.70
25871;DHT22;13689;48.590;7.752;2024-03-02T06:23:11;7.70;85.80
25871;DHT22;13689;48.590;7.752;2024-03-02T06:25:37;7.70;85.80
25871;DHT22;13689;48.590;7.752;2024-03-02T06:28:03;7.70;85.80
25871;DHT22;13689;48.590;7.752;2024-03-02T06:30:29;7.70;85.70
25871;DHT22;13689;48.590;7.752;2024-03-02T06:32:55;7.80;85.90
25871;DHT22;13689;48.590;7.752;2024-03-02T06:35:20;7.80;85.80
25871;DHT22;13689;48.590;7.752;2024-03-02T06:37:46;7.90;85.70
25871;DHT22;13689;48.590;7.752;2024-03-02T06:40:12;7.90;85.60
25871;DHT22;13689;48.590;7.752;2024-03-02T06:42:37;8.00;85.60
25871;DHT22;13689;48.590;7.752;2024-03-02T06:45:03;8.00;85.40
25871;DHT22;13689;48.590;7.752;2024-03-02T06:47:29;8.00;85.30
25871;DHT22;13689;48.590;7.752;2024-03-02T06:49:55;8.10;85.30
25871;DHT22;13689;48.590;7.752;2024-03-02T06:52:22;8.10;85.30
25871;DHT22;13689;48.590;7.752;2024-03-02T06:54:48;8.20;85.10
25871;DHT22;13689;48.590;7.752;2024-03-02T06:57:13;8.20;85.10
25871;DHT22;13689;48.590;7.752;2024-03-02T06:59:39;8.20;85.10
25871;DHT22;13689;48.590;7.752;2024-03-02T07:02:04;8.20;85.00
25871;DHT22;13689;48.590;7.752;2024-03-02T07:04:30;8.20;84.90
25871;DHT22;13689;48.590;7.752;2024-03-02T07:06:55;8.30;84.90
25871;DHT22;13689;48.590;7.752;2024-03-02T07:09:21;8.30;85.00
25871;DHT22;13689;48.590;7.752;2024-03-02T07:11:50;8.30;84.90
25871;DHT22;13689;48.590;7.752;2024-03-02T07:14:15;8.30;84.80
25871;DHT22;13689;48.590;7.752;2024-03-02T07:16:41;8.40;85.00
25871;DHT22;13689;48.590;7.752;2024-03-02T07:19:08;8.50;85.00
25871;DHT22;13689;48.590;7.752;2024-03-02T07:21:34;8.50;85.40
25871;DHT22;13689;48.590;7.752;2024-03-02T07:24:00;8.50;84.40
25871;DHT22;13689;48.590;7.752;2024-03-02T07:26:28;8.60;84.20
25871;DHT22;13689;48.590;7.752;2024-03-02T07:28:55;8.70;84.30
25871;DHT22;13689;48.590;7.752;2024-03-02T07:31:21;8.70;84.00
25871;DHT22;13689;48.590;7.752;2024-03-02T07:33:46;8.80;84.00
25871;DHT22;13689;48.590;7.752;2024-03-02T07:36:12;8.90;83.90
25871;DHT22;13689;48.590;7.752;2024-03-02T07:38:38;9.00;83.70
25871;DHT22;13689;48.590;7.752;2024-03-02T07:41:04;9.00;83.40
25871;DHT22;13689;48.590;7.752;2024-03-02T07:43:30;8.90;83.30
25871;DHT22;13689;48.590;7.752;2024-03-02T07:45:58;8.90;83.10
25871;DHT22;13689;48.590;7.752;2024-03-02T07:48:24;8.90;83.20
25871;DHT22;13689;48.590;7.752;2024-03-02T07:50:50;8.80;83.00
25871;DHT22;13689;48.590;7.752;2024-03-02T07:53:16;8.70;83.20
25871;DHT22;13689;48.590;7.752;2024-03-02T07:55:42;8.60;83.10
25871;DHT22;13689;48.590;7.752;2024-03-02T07:58:07;8.60;83.10
25871;DHT22;13689;48.590;7.752;2024-03-02T08:00:33;8.60;83.30
25871;DHT22;13689;48.590;7.752;2024-03-02T08:02:59;8.60;83.30
25871;DHT22;13689;48.590;7.752;2024-03-02T08:05:26;8.60;83.20
25871;DHT22;13689;48.590;7.752;2024-03-02T08:07:52;8.60;83.10
25871;DHT22;13689;48.590;7.752;2024-03-02T08:10:19;8.70;83.20
25871;DHT22;13689;48.590;7.752;2024-03-02T08:12:45;8.70;83.10
25871;DHT22;13689;48.590;7.752;2024-03-02T08:15:10;8.70;82.90
25871;DHT22;13689;48.590;7.752;2024-03-02T08:17:39;8.70;83.00
25871;DHT22;13689;48.590;7.752;2024-03-02T08:20:11;8.70;82.90
25871;DHT22;13689;48.590;7.752;2024-03-02T08:22:36;8.80;82.90
25871;DHT22;13689;48.590;7.752;2024-03-02T08:25:02;8.80;82.80
25871;DHT22;13689;48.590;7.752;2024-03-02T08:27:28;8.90;82.80
25871;DHT22;13689;48.590;7.752;2024-03-02T08:29:53;8.90;82.60
25871;DHT22;13689;48.590;7.752;2024-03-02T08:32:19;9.00;82.60
25871;DHT22;13689;48.590;7.752;2024-03-02T08:34:45;9.10;82.60
25871;DHT22;13689;48.590;7.752;2024-03-02T08:37:10;9.10;82.30
25871;DHT22;13689;48.590;7.752;2024-03-02T08:39:36;9.20;82.30
25871;DHT22;13689;48.590;7.752;2024-03-02T08:42:01;9.30;82.20
25871;DHT22;13689;48.590;7.752;2024-03-02T08:44:27;9.50;81.80
25871;DHT22;13689;48.590;7.752;2024-03-02T08:46:52;10.30;82.00
25871;DHT22;13689;48.590;7.752;2024-03-02T08:49:18;12.60;78.80
25871;DHT22;13689;48.590;7.752;2024-03-02T08:51:44;14.40;72.90
25871;DHT22;13689;48.590;7.752;2024-03-02T08:54:09;15.70;69.60
25871;DHT22;13689;48.590;7.752;2024-03-02T08:56:35;16.60;67.20
25871;DHT22;13689;48.590;7.752;2024-03-02T08:59:01;17.10;65.70
25871;DHT22;13689;48.590;7.752;2024-03-02T09:01:27;17.20;64.80
25871;DHT22;13689;48.590;7.752;2024-03-02T09:03:52;17.40;64.90
25871;DHT22;13689;48.590;7.752;2024-03-02T09:06:18;17.60;64.50
25871;DHT22;13689;48.590;7.752;2024-03-02T09:08:45;17.60;64.30
25871;DHT22;13689;48.590;7.752;2024-03-02T09:11:11;17.70;63.40
25871;DHT22;13689;48.590;7.752;2024-03-02T09:13:37;17.70;63.30
25871;DHT22;13689;48.590;7.752;2024-03-02T09:16:03;17.80;63.30
25871;DHT22;13689;48.590;7.752;2024-03-02T09:18:30;17.90;62.70
25871;DHT22;13689;48.590;7.752;2024-03-02T09:20:56;17.90;62.10
25871;DHT22;13689;48.590;7.752;2024-03-02T09:23:21;17.90;61.50
25871;DHT22;13689;48.590;7.752;2024-03-02T09:25:47;18.00;61.10
25871;DHT22;13689;48.590;7.752;2024-03-02T09:28:13;18.10;60.50
25871;DHT22;13689;48.590;7.752;2024-03-02T09:30:39;18.10;60.40
25871;DHT22;13689;48.590;7.752;2024-03-02T09:33:04;18.40;60.00
25871;DHT22;13689;48.590;7.752;2024-03-02T09:35:30;18.60;59.30
25871;DHT22;13689;48.590;7.752;2024-03-02T09:37:56;18.90;58.80
25871;DHT22;13689;48.590;7.752;2024-03-02T09:40:22;19.00;58.00
25871;DHT22;13689;48.590;7.752;2024-03-02T09:42:48;19.10;57.70
25871;DHT22;13689;48.590;7.752;2024-03-02T09:45:23;19.20;57.60
25871;DHT22;13689;48.590;7.752;2024-03-02T09:47:49;19.30;57.40
25871;DHT22;13689;48.590;7.752;2024-03-02T09:50:15;19.40;57.10
25871;DHT22;13689;48.590;7.752;2024-03-02T09:52:42;19.50;56.80
25871;DHT22;13689;48.590;7.752;2024-03-02T09:55:09;19.60;56.50
25871;DHT22;13689;48.590;7.752;2024-03-02T09:57:34;19.70;56.20
25871;DHT22;13689;48.590;7.752;2024-03-02T10:00:00;19.80;55.90
25871;DHT22;13689;48.590;7.752;2024-03-02T10:02:26;19.90;55.60
25871;DHT22;13689;48.590;7.752;2024-03-02T10:04:51;20.00;55.00
25871;DHT22;13689;48.590;7.752;2024-03-02T10:07:18;20.00;54.50
25871;DHT22;13689;48.590;7.752;2024-03-02T10:09:46;20.10;54.30
25871;DHT22;13689;48.590;7.752;2024-03-02T10:12:13;20.20;53.80
25871;DHT22;13689;48.590;7.752;2024-03-02T10:14:39;20.40;53.50
25871;DHT22;13689;48.590;7.752;2024-03-02T10:17:09;20.60;53.00
25871;DHT22;13689;48.590;7.752;2024-03-02T10:19:35;20.80;52.00
25871;DHT22;13689;48.590;7.752;2024-03-02T10:22:03;20.90;51.40
25871;DHT22;13689;48.590;7.752;2024-03-02T10:24:42;21.20;51.00
25871;DHT22;13689;48.590;7.752;2024-03-02T10:27:22;21.40;50.50
25871;DHT22;13689;48.590;7.752;2024-03-02T10:29:48;21.60;50.10
25871;DHT22;13689;48.590;7.752;2024-03-02T10:32:15;21.60;49.80
25871;DHT22;13689;48.590;7.752;2024-03-02T10:34:45;21.70;49.60
25871;DHT22;13689;48.590;7.752;2024-03-02T10:37:11;21.70;49.20
25871;DHT22;13689;48.590;7.752;2024-03-02T10:39:38;21.70;48.90
25871;DHT22;13689;48.590;7.752;2024-03-02T10:42:07;21.40;48.60
25871;DHT22;13689;48.590;7.752;2024-03-02T10:44:33;21.10;48.70
25871;DHT22;13689;48.590;7.752;2024-03-02T10:47:04;20.90;48.60
25871;DHT22;13689;48.590;7.752;2024-03-02T10:49:31;20.70;48.30
25871;DHT22;13689;48.590;7.752;2024-03-02T10:51:58;20.10;48.00
25871;DHT22;13689;48.590;7.752;2024-03-02T10:54:24;19.20;48.20
25871;DHT22;13689;48.590;7.752;2024-03-02T10:56:53;18.40;48.60
25871;DHT22;13689;48.590;7.752;2024-03-02T11:01:57;17.20;49.30
25871;DHT22;13689;48.590;7.752;2024-03-02T11:04:25;16.80;49.70
25871;DHT22;13689;48.590;7.752;2024-03-02T11:06:51;16.50;49.90
25871;DHT22;13689;48.590;7.752;2024-03-02T11:09:21;16.30;50.10
25871;DHT22;13689;48.590;7.752;2024-03-02T11:12:15;16.20;50.10
25871;DHT22;13689;48.590;7.752;2024-03-02T11:14:41;16.10;50.20
25871;DHT22;13689;48.590;7.752;2024-03-02T11:17:11;15.90;50.20
25871;DHT22;13689;48.590;7.752;2024-03-02T11:19:38;15.80;50.30
25871;DHT22;13689;48.590;7.752;2024-03-02T11:22:05;15.80;50.30
25871;DHT22;13689;48.590;7.752;2024-03-02T11:24:31;15.70;50.50
25871;DHT22;13689;48.590;7.752;2024-03-02T11:26:59;15.60;50.50
25871;DHT22;13689;48.590;7.752;2024-03-02T11:34:43;15.50;50.80
25871;DHT22;13689;48.590;7.752;2024-03-02T11:37:15;15.50;50.80
25871;DHT22;13689;48.590;7.752;2024-03-02T11:39:43;15.50;50.70
25871;DHT22;13689;48.590;7.752;2024-03-02T11:42:09;15.40;50.60
25871;DHT22;13689;48.590;7.752;2024-03-02T11:44:37;15.40;50.70
25871;DHT22;13689;48.590;7.752;2024-03-02T11:47:06;15.40;50.80
25871;DHT22;13689;48.590;7.752;2024-03-02T11:49:39;15.40;50.80
25871;DHT22;13689;48.590;7.752;2024-03-02T11:52:07;15.30;50.60
25871;DHT22;13689;48.590;7.752;2024-03-02T11:54:33;15.30;50.60
25871;DHT22;13689;48.590;7.752;2024-03-02T11:57:05;15.30;50.70
25871;DHT22;13689;48.590;7.752;2024-03-02T11:59:31;15.30;50.80
25871;DHT22;13689;48.590;7.752;2024-03-02T12:01:58;15.30;50.90
25871;DHT22;13689;48.590;7.752;2024-03-02T12:04:24;15.40;50.90
25871;DHT22;13689;48.590;7.752;2024-03-02T12:07:00;15.30;51.00
25871;DHT22;13689;48.590;7.752;2024-03-02T12:09:29;15.30;51.10
25871;DHT22;13689;48.590;7.752;2024-03-02T12:12:06;15.30;51.20
25871;DHT22;13689;48.590;7.752;2024-03-02T12:14:33;15.40;51.40
25871;DHT22;13689;48.590;7.752;2024-03-02T12:16:59;15.40;51.40
25871;DHT22;13689;48.590;7.752;2024-03-02T12:19:30;15.40;51.50
25871;DHT22;13689;48.590;7.752;2024-03-02T12:21:59;15.50;51.50
25871;DHT22;13689;48.590;7.752;2024-03-02T12:24:28;15.60;51.60
25871;DHT22;13689;48.590;7.752;2024-03-02T12:26:54;15.60;51.60
25871;DHT22;13689;48.590;7.752;2024-03-02T12:29:20;15.70;51.60
25871;DHT22;13689;48.590;7.752;2024-03-02T12:31:50;15.80;51.60
25871;DHT22;13689;48.590;7.752;2024-03-02T12:34:17;15.90;51.50
25871;DHT22;13689;48.590;7.752;2024-03-02T12:36:43;15.90;51.50
25871;DHT22;13689;48.590;7.752;2024-03-02T12:39:13;16.00;51.50
25871;DHT22;13689;48.590;7.752;2024-03-02T12:41:39;16.00;51.40
25871;DHT22;13689;48.590;7.752;2024-03-02T12:44:05;16.00;51.20
25871;DHT22;13689;48.590;7.752;2024-03-02T12:46:34;15.90;51.40
25871;DHT22;13689;48.590;7.752;2024-03-02T12:49:09;15.90;51.50
25871;DHT22;13689;48.590;7.752;2024-03-02T12:51:36;15.80;51.50
25871;DHT22;13689;48.590;7.752;2024-03-02T12:54:02;15.80;51.60
25871;DHT22;13689;48.590;7.752;2024-03-02T12:56:29;15.80;51.70
25871;DHT22;13689;48.590;7.752;2024-03-02T12:58:55;15.70;51.60
25871;DHT22;13689;48.590;7.752;2024-03-02T13:01:21;15.70;51.60
25871;DHT22;13689;48.590;7.752;2024-03-02T13:03:50;15.70;51.80
25871;DHT22;13689;48.590;7.752;2024-03-02T13:06:17;15.70;51.80
25871;DHT22;13689;48.590;7.752;2024-03-02T13:08:43;15.80;51.80
25871;DHT22;13689;48.590;7.752;2024-03-02T13:11:08;15.80;51.80
25871;DHT22;13689;48.590;7.752;2024-03-02T13:13:34;15.70;51.70
25871;DHT22;13689;48.590;7.752;2024-03-02T13:16:01;15.70;51.60
25871;DHT22;13689;48.590;7.752;2024-03-02T13:18:28;15.80;51.60
25871;DHT22;13689;48.590;7.752;2024-03-02T13:20:53;15.80;51.60
25871;DHT22;13689;48.590;7.752;2024-03-02T13:23:21;15.80;51.40
25871;DHT22;13689;48.590;7.752;2024-03-02T13:25:47;15.80;51.40
25871;DHT22;13689;48.590;7.752;2024-03-02T13:28:13;15.80;51.40
25871;DHT22;13689;48.590;7.752;2024-03-02T13:30:38;15.80;51.30
25871;DHT22;13689;48.590;7.752;2024-03-02T13:33:04;15.80;51.30
25871;DHT22;13689;48.590;7.752;2024-03-02T13:35:29;15.80;51.30
25871;DHT22;13689;48.590;7.752;2024-03-02T13:37:56;15.80;51.20
25871;DHT22;13689;48.590;7.752;2024-03-02T13:40:22;15.90;51.20
25871;DHT22;13689;48.590;7.752;2024-03-02T13:42:49;15.90;51.20
25871;DHT22;13689;48.590;7.752;2024-03-02T13:45:16;15.90;51.20
25871;DHT22;13689;48.590;7.752;2024-03-02T13:47:43;16.00;51.10
25871;DHT22;13689;48.590;7.752;2024-03-02T13:50:09;16.10;51.00
25871;DHT22;13689;48.590;7.752;2024-03-02T13:52:36;16.10;50.90
25871;DHT22;13689;48.590;7.752;2024-03-02T13:55:02;16.20;50.90
25871;DHT22;13689;48.590;7.752;2024-03-02T13:57:27;16.20;50.80
25871;DHT22;13689;48.590;7.752;2024-03-02T13:59:53;16.20;50.70
25871;DHT22;13689;48.590;7.752;2024-03-02T14:02:20;16.30;50.70
25871;DHT22;13689;48.590;7.752;2024-03-02T14:04:45;16.30;50.60
25871;DHT22;13689;48.590;7.752;2024-03-02T14:07:11;16.30;50.50
25871;DHT22;13689;48.590;7.752;2024-03-02T14:09:37;16.30;50.40
25871;DHT22;13689;48.590;7.752;2024-03-02T14:12:04;16.30;50.40
25871;DHT22;13689;48.590;7.752;2024-03-02T14:14:30;16.30;50.30
25871;DHT22;13689;48.590;7.752;2024-03-02T14:16:55;16.30;50.30
25871;DHT22;13689;48.590;7.752;2024-03-02T14:19:21;16.20;50.20
25871;DHT22;13689;48.590;7.752;2024-03-02T14:21:47;16.20;50.30
25871;DHT22;13689;48.590;7.752;2024-03-02T14:24:13;16.20;50.30
25871;DHT22;13689;48.590;7.752;2024-03-02T14:26:39;16.20;50.40
25871;DHT22;13689;48.590;7.752;2024-03-02T14:29:06;16.30;50.30
25871;DHT22;13689;48.590;7.752;2024-03-02T14:31:32;16.30;50.20
25871;DHT22;13689;48.590;7.752;2024-03-02T14:33:58;16.40;50.10
25871;DHT22;13689;48.590;7.752;2024-03-02T14:36:23;16.40;49.90
25871;DHT22;13689;48.590;7.752;2024-03-02T14:38:49;16.50;50.00
25871;DHT22;13689;48.590;7.752;2024-03-02T14:41:15;16.50;49.80
25871;DHT22;13689;48.590;7.752;2024-03-02T14:43:41;16.50;49.80
25871;DHT22;13689;48.590;7.752;2024-03-02T14:46:06;16.50;49.70
25871;DHT22;13689;48.590;7.752;2024-03-02T14:48:38;16.60;49.60
25871;DHT22;13689;48.590;7.752;2024-03-02T14:51:04;16.60;49.50
25871;DHT22;13689;48.590;7.752;2024-03-02T14:53:30;16.60;49.60
25871;DHT22;13689;48.590;7.752;2024-03-02T14:55:56;16.60;49.50
25871;DHT22;13689;48.590;7.752;2024-03-02T14:58:21;16.60;49.50
25871;DHT22;13689;48.590;7.752;2024-03-02T15:00:47;16.50;49.60
25871;DHT22;13689;48.590;7.752;2024-03-02T15:03:12;16.50;49.50
25871;DHT22;13689;48.590;7.752;2024-03-02T15:05:38;16.50;49.50
25871;DHT22;13689;48.590;7.752;2024-03-02T15:08:05;16.40;49.50
25871;DHT22;13689;48.590;7.752;2024-03-02T15:10:31;16.40;49.50
25871;DHT22;13689;48.590;7.752;2024-03-02T15:12:57;16.30;49.60
25871;DHT22;13689;48.590;7.752;2024-03-02T15:15:23;16.30;49.60
25871;DHT22;13689;48.590;7.752;2024-03-02T15:17:49;16.30;49.60
25871;DHT22;13689;48.590;7.752;2024-03-02T15:20:15;16.30;49.60
25871;DHT22;13689;48.590;7.752;2024-03-02T15:22:41;16.30;49.70
25871;DHT22;13689;48.590;7.752;2024-03-02T15:25:07;16.20;49.70
25871;DHT22;13689;48.590;7.752;2024-03-02T15:27:32;16.20;49.70
25871;DHT22;13689;48.590;7.752;2024-03-02T15:29:58;16.20;49.70
25871;DHT22;13689;48.590;7.752;2024-03-02T15:32:24;16.10;49.70
25871;DHT22;13689;48.590;7.752;2024-03-02T15:34:55;16.10;49.70
25871;DHT22;13689;48.590;7.752;2024-03-02T15:37:20;16.10;49.80
25871;DHT22;13689;48.590;7.752;2024-03-02T15:39:46;16.10;49.80
25871;DHT22;13689;48.590;7.752;2024-03-02T15:42:11;16.10;49.80
25871;DHT22;13689;48.590;7.752;2024-03-02T15:44:38;16.00;49.80